createdAt,value
2023-01-15T00:02:08.442Z,99709.97
2023-01-15T00:04:35.366Z,99718.81
2023-01-15T00:07:02.011Z,99711.97
2023-01-15T00:09:28.969Z,99711.53
2023-01-15T00:11:55.630Z,99713.88
2023-01-15T00:14:22.797Z,99710.06
2023-01-15T00:16:53.262Z,99715.59
2023-01-15T00:19:20.329Z,99717.03
2023-01-15T00:21:46.984Z,99690.19
2023-01-15T00:24:32.834Z,99710.00
2023-01-15T00:27:18.195Z,99704.59
2023-01-15T00:29:46.795Z,99692.16
2023-01-15T00:32:13.334Z,99694.81
2023-01-15T00:34:39.887Z,99696.63
2023-01-15T00:37:06.484Z,99703.81
2023-01-15T00:39:35.750Z,99703.19
2023-01-15T00:42:03.276Z,99709.03
2023-01-15T00:44:34.198Z,99719.75
2023-01-15T00:47:01.409Z,99722.09
2023-01-15T00:49:27.981Z,99713.31
2023-01-15T00:51:54.722Z,99721.75
2023-01-15T00:54:21.593Z,99725.28
2023-01-15T00:56:48.430Z,99724.22
2023-01-15T00:59:15.261Z,99727.63
2023-01-15T01:01:42.729Z,99719.81
2023-01-15T01:04:09.427Z,99725.19
2023-01-15T01:06:36.098Z,99740.53
2023-01-15T01:09:03.424Z,99735.16
2023-01-15T01:11:34.683Z,99741.50
2023-01-15T01:14:02.969Z,99732.56
2023-01-15T01:16:30.670Z,99736.75
2023-01-15T01:18:59.627Z,99736.38
2023-01-15T01:21:27.817Z,99739.19
2023-01-15T01:23:54.939Z,99750.72
2023-01-15T01:26:22.339Z,99745.53
2023-01-15T01:28:51.141Z,99738.22
2023-01-15T01:31:19.015Z,99732.22
2023-01-15T01:33:51.653Z,99735.38
2023-01-15T01:36:18.957Z,99738.06
2023-01-15T01:38:49.657Z,99724.94
2023-01-15T01:41:18.278Z,99737.47
2023-01-15T01:44:29.882Z,99748.25
2023-01-15T01:46:56.445Z,99733.47
2023-01-15T01:49:24.470Z,99746.44
2023-01-15T01:52:03.802Z,99748.25
2023-01-15T01:54:34.607Z,99749.75
2023-01-15T01:57:04.157Z,99727.09
2023-01-15T01:59:31.504Z,99739.38
2023-01-15T02:01:58.401Z,99748.19
2023-01-15T02:04:27.685Z,99748.19
2023-01-15T02:06:55.013Z,99750.13
2023-01-15T02:09:22.436Z,99740.56
2023-01-15T02:11:55.813Z,99749.69
2023-01-15T02:14:42.239Z,99732.34
2023-01-15T02:17:39.814Z,99730.09
2023-01-15T02:20:28.862Z,99723.22
2023-01-15T02:23:05.831Z,99733.53
2023-01-15T02:25:48.077Z,99731.72
2023-01-15T02:28:30.063Z,99741.66
2023-01-15T02:31:05.278Z,99723.41
2023-01-15T02:33:38.147Z,99720.38
2023-01-15T02:36:10.659Z,99721.38
2023-01-15T02:38:58.467Z,99727.06
2023-01-15T02:41:35.698Z,99725.09
2023-01-15T02:44:08.697Z,99727.69
2023-01-15T02:46:39.220Z,99719.53
2023-01-15T02:49:12.586Z,99727.97
2023-01-15T02:51:51.999Z,99721.97
2023-01-15T02:54:24.425Z,99716.34
2023-01-15T02:56:53.020Z,99705.31
2023-01-15T02:59:27.240Z,99724.03
2023-01-15T03:02:01.947Z,99720.44
2023-01-15T03:04:40.091Z,99715.25
2023-01-15T03:07:15.146Z,99713.94
2023-01-15T03:09:42.805Z,99719.47
2023-01-15T03:12:10.391Z,99719.84
2023-01-15T03:14:52.131Z,99724.75
2023-01-15T03:17:24.284Z,99716.53
2023-01-15T03:19:58.825Z,99705.81
2023-01-15T03:22:31.554Z,99709.28
2023-01-15T03:25:07.132Z,99711.50
2023-01-15T03:27:40.874Z,99697.56
2023-01-15T03:30:11.935Z,99702.84
2023-01-15T03:32:39.198Z,99707.69
2023-01-15T03:35:45.173Z,99712.41
2023-01-15T03:38:19.201Z,99719.03
2023-01-15T03:41:03.460Z,99728.44
2023-01-15T03:43:58.963Z,99724.13
2023-01-15T03:47:04.995Z,99716.00
2023-01-15T03:49:52.269Z,99714.56
2023-01-15T03:52:39.399Z,99717.16
2023-01-15T03:55:15.504Z,99703.81
2023-01-15T03:57:59.355Z,99712.75
2023-01-15T04:00:35.916Z,99702.03
2023-01-15T04:03:08.300Z,99702.75
2023-01-15T04:05:37.975Z,99697.66
2023-01-15T04:08:09.469Z,99699.09
2023-01-15T04:10:36.369Z,99711.00
2023-01-15T04:13:06.516Z,99699.38
2023-01-15T04:15:33.687Z,99693.91
2023-01-15T04:18:00.822Z,99705.53
2023-01-15T04:20:30.174Z,99711.53
2023-01-15T04:22:56.875Z,99701.69
2023-01-15T04:25:23.429Z,99700.34
2023-01-15T04:27:50.653Z,99704.09
2023-01-15T04:30:19.508Z,99706.88
2023-01-15T04:32:49.554Z,99709.91
2023-01-15T04:35:17.377Z,99705.44
2023-01-15T04:37:43.979Z,99701.22
2023-01-15T04:40:37.524Z,99703.03
2023-01-15T04:43:24.363Z,99721.16
2023-01-15T04:45:51.247Z,99701.50
2023-01-15T04:48:21.011Z,99706.59
2023-01-15T04:50:48.219Z,99719.00
2023-01-15T04:53:14.831Z,99723.31
2023-01-15T04:55:41.555Z,99725.03
2023-01-15T04:58:08.638Z,99732.34
2023-01-15T05:00:35.648Z,99704.78
2023-01-15T05:03:02.323Z,99722.59
2023-01-15T05:05:29.010Z,99731.19
2023-01-15T05:07:55.712Z,99728.13
2023-01-15T05:10:22.483Z,99717.75
2023-01-15T05:12:49.275Z,99720.00
2023-01-15T05:15:16.148Z,99720.44
2023-01-15T05:17:42.943Z,99702.19
2023-01-15T05:20:10.390Z,99707.88
2023-01-15T05:22:36.987Z,99681.06
2023-01-15T05:25:04.250Z,99697.09
2023-01-15T05:27:31.271Z,99690.63
2023-01-15T05:29:57.982Z,99698.25
2023-01-15T05:32:24.742Z,99692.22
2023-01-15T05:34:51.435Z,99693.16
2023-01-15T05:37:17.970Z,99688.44
2023-01-15T05:39:46.423Z,99699.31
2023-01-15T05:42:13.452Z,99696.03
2023-01-15T05:44:40.376Z,99700.06
2023-01-15T05:47:07.921Z,99700.59
2023-01-15T05:49:35.420Z,99688.63
2023-01-15T05:52:02.496Z,99690.59
2023-01-15T05:54:32.679Z,99693.19
2023-01-15T05:56:59.892Z,99689.78
2023-01-15T05:59:28.584Z,99689.25
2023-01-15T06:01:55.704Z,99702.56
2023-01-15T06:04:25.345Z,99693.63
2023-01-15T06:06:55.836Z,99696.94
2023-01-15T06:09:27.866Z,99701.75
2023-01-15T06:11:55.251Z,99701.75
2023-01-15T06:14:22.081Z,99707.66
2023-01-15T06:16:49.052Z,99726.59
2023-01-15T06:19:15.644Z,99729.25
2023-01-15T06:21:42.743Z,99718.97
2023-01-15T06:24:12.433Z,99720.13
2023-01-15T06:26:39.717Z,99727.91
2023-01-15T06:29:06.578Z,99715.56
2023-01-15T06:31:36.523Z,99708.13
2023-01-15T06:34:03.322Z,99693.28
2023-01-15T06:36:30.019Z,99712.34
2023-01-15T06:38:57.043Z,99733.94
2023-01-15T06:41:44.280Z,99708.94
2023-01-15T06:44:32.099Z,99726.66
2023-01-15T06:47:19.943Z,99722.63
2023-01-15T06:49:50.562Z,99718.97
2023-01-15T06:52:17.359Z,99713.69
2023-01-15T06:54:44.142Z,99713.97
2023-01-15T06:57:10.907Z,99714.03
2023-01-15T06:59:37.655Z,99716.03
2023-01-15T07:02:04.480Z,99712.47
2023-01-15T07:04:34.538Z,99723.03
2023-01-15T07:07:06.677Z,99723.53
2023-01-15T07:09:33.440Z,99736.13
2023-01-15T07:12:00.142Z,99729.34
2023-01-15T07:14:31.204Z,99725.31
2023-01-15T07:16:59.254Z,99740.00
2023-01-15T07:19:26.494Z,99739.19
2023-01-15T07:21:53.334Z,99732.44
2023-01-15T07:24:20.231Z,99737.47
2023-01-15T07:26:47.603Z,99740.41
2023-01-15T07:29:14.895Z,99761.28
2023-01-15T07:31:42.020Z,99761.75
2023-01-15T07:34:09.417Z,99762.56
2023-01-15T07:36:37.291Z,99753.22
2023-01-15T07:39:08.603Z,99758.22
2023-01-15T07:41:54.022Z,99765.16
2023-01-15T07:44:39.961Z,99760.16
2023-01-15T07:47:38.751Z,99754.41
2023-01-15T07:50:09.179Z,99756.00
2023-01-15T07:52:35.917Z,99752.75
2023-01-15T07:55:03.883Z,99754.69
2023-01-15T07:57:31.289Z,99759.13
2023-01-15T07:59:57.806Z,99764.13
2023-01-15T08:02:24.415Z,99763.16
2023-01-15T08:04:51.021Z,99766.53
2023-01-15T08:07:17.612Z,99757.97
2023-01-15T08:09:44.463Z,99760.09
2023-01-15T08:12:30.148Z,99770.63
2023-01-15T08:15:16.602Z,99768.16
2023-01-15T08:17:49.269Z,99768.09
2023-01-15T08:20:21.889Z,99758.16
2023-01-15T08:22:48.812Z,99759.78
2023-01-15T08:25:18.417Z,99778.25
2023-01-15T08:27:45.789Z,99769.97
2023-01-15T08:30:15.560Z,99778.38
2023-01-15T08:32:42.624Z,99782.28
2023-01-15T08:35:12.405Z,99776.41
2023-01-15T08:37:41.557Z,99772.81
2023-01-15T08:40:10.017Z,99767.97
2023-01-15T08:42:36.768Z,99759.13
2023-01-15T08:45:03.966Z,99770.22
2023-01-15T08:47:32.628Z,99768.28
2023-01-15T08:50:00.609Z,99754.66
2023-01-15T08:52:27.196Z,99773.72
2023-01-15T08:54:53.850Z,99770.97
2023-01-15T08:57:20.403Z,99766.28
2023-01-15T08:59:50.183Z,99759.94
2023-01-15T09:02:17.758Z,99751.50
2023-01-15T09:04:44.379Z,99754.22
2023-01-15T09:07:12.708Z,99760.50
2023-01-15T09:09:39.300Z,99752.66
2023-01-15T09:12:06.460Z,99764.09
2023-01-15T09:14:59.311Z,99747.00
2023-01-15T09:17:19.585Z,99750.38
2023-01-15T09:19:46.392Z,99752.31
2023-01-15T09:22:13.553Z,99738.72
2023-01-15T09:24:40.109Z,99744.28
2023-01-15T09:27:07.060Z,99752.34
2023-01-15T09:29:33.609Z,99766.72
2023-01-15T09:32:00.732Z,99762.59
2023-01-15T09:34:27.477Z,99759.44
2023-01-15T09:36:54.220Z,99768.03
2023-01-15T09:39:20.858Z,99748.19
2023-01-15T09:42:15.131Z,99741.56
2023-01-15T09:44:47.552Z,99766.72
2023-01-15T09:47:56.087Z,99750.63
2023-01-15T09:50:41.965Z,99770.69
2023-01-15T09:53:44.170Z,99781.22
2023-01-15T09:56:19.353Z,99781.06
2023-01-15T09:58:46.717Z,99767.16
2023-01-15T10:01:34.363Z,99772.91
2023-01-15T10:04:29.303Z,99784.53
2023-01-15T10:07:08.358Z,99779.91
2023-01-15T10:09:39.458Z,99788.56
2023-01-15T10:12:36.661Z,99769.25
2023-01-15T10:15:06.806Z,99777.03
2023-01-15T10:17:48.394Z,99796.63
2023-01-15T10:20:25.971Z,99779.88
2023-01-15T10:23:17.383Z,99772.28
2023-01-15T10:25:55.098Z,99774.13
2023-01-15T10:28:47.088Z,99779.97
2023-01-15T10:31:20.715Z,99783.53
2023-01-15T10:34:22.681Z,99786.13
2023-01-15T10:36:58.971Z,99795.00
2023-01-15T10:39:46.932Z,99781.19
2023-01-15T10:42:13.489Z,99790.09
2023-01-15T10:45:26.848Z,99770.41
2023-01-15T10:48:00.721Z,99783.47
2023-01-15T10:50:27.270Z,99770.47
2023-01-15T10:53:06.902Z,99765.66
2023-01-15T10:55:41.060Z,99776.66
2023-01-15T10:58:34.206Z,99779.25
2023-01-15T11:01:06.167Z,99786.97
2023-01-15T11:03:38.610Z,99763.66
2023-01-15T11:06:12.386Z,99796.56
2023-01-15T11:09:08.048Z,99781.00
2023-01-15T11:11:55.047Z,99784.47
2023-01-15T11:14:58.395Z,99787.69
2023-01-15T11:17:56.194Z,99770.94
2023-01-15T11:20:46.456Z,99802.69
2023-01-15T11:23:15.951Z,99796.66
2023-01-15T11:25:52.793Z,99799.69
2023-01-15T11:28:36.657Z,99798.81
2023-01-15T11:31:03.678Z,99785.81
2023-01-15T11:33:32.123Z,99780.28
2023-01-15T11:36:04.217Z,99790.56
2023-01-15T11:38:43.342Z,99791.19
2023-01-15T11:41:55.674Z,99776.69
2023-01-15T11:44:42.885Z,99810.00
2023-01-15T11:47:35.763Z,99821.22
2023-01-15T11:50:21.539Z,99802.59
2023-01-15T11:52:55.081Z,99796.53
2023-01-15T11:55:26.067Z,99785.09
2023-01-15T11:57:53.920Z,99802.88
2023-01-15T12:00:26.084Z,99801.53
2023-01-15T12:03:00.258Z,99789.97
2023-01-15T12:05:37.154Z,99788.13
2023-01-15T12:08:28.644Z,99805.47
2023-01-15T12:11:26.973Z,99795.53
2023-01-15T12:14:10.634Z,99774.41
2023-01-15T12:17:02.953Z,99780.03
2023-01-15T12:19:47.975Z,99771.16
2023-01-15T12:22:28.138Z,99777.22
2023-01-15T12:24:57.531Z,99765.88
2023-01-15T12:27:39.484Z,99763.19
2023-01-15T12:30:29.347Z,99776.41
2023-01-15T12:33:18.622Z,99776.06
2023-01-15T12:35:56.640Z,99778.72
2023-01-15T12:38:40.966Z,99790.16
2023-01-15T12:41:13.675Z,99765.34
2023-01-15T12:44:04.492Z,99777.00
2023-01-15T12:46:33.350Z,99782.19
2023-01-15T12:49:37.157Z,99764.06
2023-01-15T12:52:14.497Z,99756.53
2023-01-15T12:54:56.745Z,99743.38
2023-01-15T12:57:35.489Z,99763.34
2023-01-15T13:00:10.657Z,99771.78
2023-01-15T13:03:05.763Z,99763.84
2023-01-15T13:05:51.364Z,99759.47
2023-01-15T13:08:38.440Z,99775.53
2023-01-15T13:11:07.459Z,99768.91
2023-01-15T13:13:38.149Z,99765.34
2023-01-15T13:16:25.821Z,99760.25
2023-01-15T13:18:58.662Z,99779.44
2023-01-15T13:21:29.365Z,99756.56
2023-01-15T13:24:37.610Z,99763.84
2023-01-15T13:27:13.063Z,99751.94
2023-01-15T13:30:02.871Z,99776.44
2023-01-15T13:32:34.976Z,99737.97
2023-01-15T13:35:11.413Z,99751.19
2023-01-15T13:37:53.675Z,99774.50
2023-01-15T13:40:41.864Z,99764.56
2023-01-15T13:43:18.928Z,99793.56
2023-01-15T13:45:50.759Z,99770.75
2023-01-15T13:48:45.428Z,99786.56
2023-01-15T13:51:33.075Z,99753.06
2023-01-15T13:54:01.365Z,99790.97
2023-01-15T13:56:36.016Z,99795.94
2023-01-15T13:59:05.416Z,99795.97
2023-01-15T14:01:38.386Z,99790.81
2023-01-15T14:04:12.386Z,99774.53
2023-01-15T14:06:42.188Z,99804.44
2023-01-15T14:09:34.438Z,99790.34
2023-01-15T14:12:07.488Z,99798.53
2023-01-15T14:15:05.390Z,99792.00
2023-01-15T14:17:34.864Z,99784.09
2023-01-15T14:20:26.833Z,99796.19
2023-01-15T14:23:14.997Z,99796.88
2023-01-15T14:25:50.855Z,99798.97
2023-01-15T14:28:35.326Z,99799.31
2023-01-15T14:31:17.215Z,99791.50
2023-01-15T14:33:56.038Z,99805.44
2023-01-15T14:36:29.666Z,99790.78
2023-01-15T14:39:01.706Z,99806.00
2023-01-15T14:41:59.291Z,99797.56
2023-01-15T14:44:31.930Z,99809.22
2023-01-15T14:47:01.590Z,99811.34
2023-01-15T14:49:42.764Z,99809.34
2023-01-15T14:52:09.969Z,99819.03
2023-01-15T14:54:41.222Z,99830.03
2023-01-15T14:57:10.455Z,99826.50
2023-01-15T14:59:54.342Z,99838.81
2023-01-15T15:02:23.870Z,99838.56
2023-01-15T15:04:56.440Z,99840.19
2023-01-15T15:07:26.869Z,99837.16
2023-01-15T15:10:01.147Z,99847.38
2023-01-15T15:12:53.663Z,99836.06
2023-01-15T15:15:26.095Z,99843.94
2023-01-15T15:18:09.664Z,99824.25
2023-01-15T15:20:55.064Z,99852.03
2023-01-15T15:23:34.381Z,99839.03
2023-01-15T15:26:04.361Z,99824.88
2023-01-15T15:28:31.159Z,99832.84
2023-01-15T15:31:03.250Z,99850.81
2023-01-15T15:33:39.316Z,99839.22
2023-01-15T15:36:08.903Z,99833.44
2023-01-15T15:38:38.609Z,99856.97
2023-01-15T15:41:10.863Z,99847.91
2023-01-15T15:44:17.314Z,99854.19
2023-01-15T15:47:09.301Z,99852.22
2023-01-15T15:49:40.875Z,99855.06
2023-01-15T15:52:24.031Z,99856.41
2023-01-15T15:54:59.142Z,99853.63
2023-01-15T15:57:29.347Z,99853.00
2023-01-15T15:59:56.102Z,99840.38
2023-01-15T16:02:24.880Z,99841.72
2023-01-15T16:04:54.386Z,99851.31
2023-01-15T16:07:24.071Z,99850.50
2023-01-15T16:09:52.933Z,99851.03
2023-01-15T16:12:19.945Z,99843.97
2023-01-15T16:14:48.049Z,99833.94
2023-01-15T16:17:15.520Z,99816.03
2023-01-15T16:19:43.447Z,99841.78
2023-01-15T16:22:16.452Z,99852.22
2023-01-15T16:24:59.067Z,99854.34
2023-01-15T16:27:33.257Z,99850.50
2023-01-15T16:30:00.041Z,99860.88
2023-01-15T16:32:33.319Z,99855.97
2023-01-15T16:35:17.037Z,99850.28
2023-01-15T16:37:48.811Z,99858.19
2023-01-15T16:40:24.686Z,99853.28
2023-01-15T16:46:55.553Z,99857.03
2023-01-15T16:53:38.275Z,99866.78
2023-01-15T16:56:25.832Z,99864.94
2023-01-15T16:58:53.050Z,99859.03
2023-01-15T17:01:43.062Z,99867.91
2023-01-15T17:04:27.489Z,99863.88
2023-01-15T17:07:04.288Z,99866.66
2023-01-15T17:09:34.494Z,99875.44
2023-01-15T17:12:08.778Z,99879.34
2023-01-15T17:14:35.589Z,99888.66
2023-01-15T17:17:17.055Z,99879.59
2023-01-15T17:19:44.070Z,99884.81
2023-01-15T17:22:16.626Z,99867.03
2023-01-15T17:24:51.189Z,99889.03
2023-01-15T17:27:18.009Z,99880.44
2023-01-15T17:29:45.372Z,99876.72
2023-01-15T17:32:23.983Z,99872.97
2023-01-15T17:34:50.735Z,99871.00
2023-01-15T17:37:17.396Z,99875.19
2023-01-15T17:39:44.018Z,99859.69
2023-01-15T17:42:14.786Z,99852.44
2023-01-15T17:44:41.750Z,99869.50
2023-01-15T17:47:09.437Z,99870.50
2023-01-15T17:49:36.695Z,99869.38
2023-01-15T17:52:06.140Z,99862.75
2023-01-15T17:54:51.902Z,99862.28
2023-01-15T17:57:37.378Z,99863.13
2023-01-15T18:00:23.881Z,99854.53
2023-01-15T18:03:09.864Z,99875.44
2023-01-15T18:05:38.155Z,99867.50
2023-01-15T18:08:08.397Z,99872.69
2023-01-15T18:10:39.195Z,99861.19
2023-01-15T18:13:07.931Z,99860.84
2023-01-15T18:15:35.301Z,99857.66
2023-01-15T18:18:02.167Z,99854.41
2023-01-15T18:20:29.061Z,99864.56
2023-01-15T18:22:55.805Z,99859.22
2023-01-15T18:25:23.113Z,99865.06
2023-01-15T18:27:51.416Z,99855.97
2023-01-15T18:30:18.375Z,99862.91
2023-01-15T18:32:46.020Z,99868.50
2023-01-15T18:35:13.590Z,99855.72
2023-01-15T18:37:40.681Z,99869.13
2023-01-15T18:40:08.665Z,99867.66
2023-01-15T18:42:55.027Z,99857.44
2023-01-15T18:45:40.454Z,99853.41
2023-01-15T18:48:07.292Z,99854.22
2023-01-15T18:50:33.899Z,99849.22
2023-01-15T18:53:00.618Z,99844.53
2023-01-15T18:55:27.804Z,99833.59
2023-01-15T18:57:55.492Z,99837.16
2023-01-15T19:00:24.732Z,99821.09
2023-01-15T19:02:52.758Z,99827.75
2023-01-15T19:05:19.868Z,99818.03
2023-01-15T19:07:49.994Z,99813.38
2023-01-15T19:10:18.803Z,99816.41
2023-01-15T19:12:46.228Z,99814.13
2023-01-15T19:15:35.046Z,99815.78
2023-01-15T19:18:22.254Z,99812.78
2023-01-15T19:20:49.121Z,99800.00
2023-01-15T19:23:15.986Z,99798.69
2023-01-15T19:25:45.432Z,99801.41
2023-01-15T19:28:18.097Z,99792.50
2023-01-15T19:31:05.927Z,99793.63
2023-01-15T19:33:33.902Z,99779.53
2023-01-15T19:36:00.547Z,99784.66
2023-01-15T19:38:27.235Z,99788.91
2023-01-15T19:40:53.848Z,99766.47
2023-01-15T19:43:40.199Z,99776.84
2023-01-15T19:46:28.007Z,99770.19
2023-01-15T19:49:13.975Z,99766.41
2023-01-15T19:51:59.506Z,99756.69
2023-01-15T19:54:44.774Z,99759.03
2023-01-15T19:57:11.404Z,99750.63
2023-01-15T19:59:38.537Z,99752.03
2023-01-15T20:02:05.399Z,99749.94
2023-01-15T20:04:32.090Z,99738.03
2023-01-15T20:06:58.640Z,99733.19
2023-01-15T20:09:25.214Z,99729.66
2023-01-15T20:12:10.464Z,99715.13
2023-01-15T20:14:37.278Z,99712.25
2023-01-15T20:17:03.956Z,99707.06
2023-01-15T20:19:31.307Z,99695.00
2023-01-15T20:21:58.893Z,99695.97
2023-01-15T20:24:25.654Z,99696.81
2023-01-15T20:26:52.562Z,99682.72
2023-01-15T20:29:19.315Z,99683.16
2023-01-15T20:31:45.939Z,99677.97
2023-01-15T20:34:12.586Z,99675.50
2023-01-15T20:36:39.198Z,99665.38
2023-01-15T20:39:06.160Z,99667.16
2023-01-15T20:41:51.702Z,99658.66
2023-01-15T20:44:37.211Z,99651.97
2023-01-15T20:47:24.027Z,99647.75
2023-01-15T20:49:51.414Z,99642.09
2023-01-15T20:52:18.111Z,99639.88
2023-01-15T20:54:44.749Z,99638.16
2023-01-15T20:57:11.516Z,99624.41
2023-01-15T20:59:38.493Z,99625.72
2023-01-15T21:02:05.178Z,99626.41
2023-01-15T21:04:32.122Z,99614.63
2023-01-15T21:06:58.742Z,99616.09
2023-01-15T21:09:25.600Z,99611.72
2023-01-15T21:11:52.205Z,99605.69
2023-01-15T21:14:18.940Z,99599.69
2023-01-15T21:16:46.024Z,99593.09
2023-01-15T21:19:14.919Z,99593.88
2023-01-15T21:21:41.658Z,99591.09
2023-01-15T21:24:08.881Z,99584.78
2023-01-15T21:26:36.629Z,99586.03
2023-01-15T21:29:03.494Z,99586.34
2023-01-15T21:31:30.179Z,99581.72
2023-01-15T21:33:57.031Z,99578.09
2023-01-15T21:36:24.405Z,99576.75
2023-01-15T21:38:53.441Z,99579.97
2023-01-15T21:41:41.595Z,99575.50
2023-01-15T21:44:30.477Z,99559.00
2023-01-15T21:46:58.285Z,99553.53
2023-01-15T21:49:25.131Z,99551.41
2023-01-15T21:51:51.920Z,99551.03
2023-01-15T21:54:18.602Z,99545.22
2023-01-15T21:56:45.575Z,99542.19
2023-01-15T21:59:15.041Z,99530.03
2023-01-15T22:01:41.936Z,99536.09
2023-01-15T22:04:08.741Z,99528.50
2023-01-15T22:06:37.830Z,99528.78
2023-01-15T22:09:05.144Z,99521.03
2023-01-15T22:11:58.275Z,99517.28
2023-01-15T22:14:27.536Z,99517.88
2023-01-15T22:16:56.805Z,99521.44
2023-01-15T22:19:25.383Z,99518.56
2023-01-15T22:21:57.244Z,99512.00
2023-01-15T22:24:31.343Z,99511.53
2023-01-15T22:26:59.305Z,99505.53
2023-01-15T22:29:40.533Z,99509.41
2023-01-15T22:32:09.544Z,99504.22
2023-01-15T22:34:36.667Z,99496.00
2023-01-15T22:37:03.582Z,99494.03
2023-01-15T22:39:30.465Z,99498.03
2023-01-15T22:42:15.656Z,99497.25
2023-01-15T22:44:45.373Z,99485.00
2023-01-15T22:47:12.848Z,99492.44
2023-01-15T22:49:39.782Z,99473.94
2023-01-15T22:52:06.573Z,99482.78
2023-01-15T22:54:33.243Z,99477.50
2023-01-15T22:57:00.060Z,99473.50
2023-01-15T22:59:27.028Z,99478.16
2023-01-15T23:01:54.004Z,99483.66
2023-01-15T23:04:23.552Z,99485.00
2023-01-15T23:06:54.339Z,99493.13
2023-01-15T23:09:23.239Z,99479.25
2023-01-15T23:11:51.713Z,99478.81
2023-01-15T23:14:20.393Z,99486.56
2023-01-15T23:16:47.463Z,99492.72
2023-01-15T23:19:14.669Z,99482.09
2023-01-15T23:21:42.154Z,99472.91
2023-01-15T23:24:09.329Z,99475.03
2023-01-15T23:26:36.392Z,99482.00
2023-01-15T23:29:03.699Z,99461.38
2023-01-15T23:31:30.880Z,99452.56
2023-01-15T23:33:58.560Z,99457.38
2023-01-15T23:36:25.375Z,99447.19
2023-01-15T23:38:52.183Z,99442.81
2023-01-15T23:41:41.255Z,99440.75
2023-01-15T23:44:37.350Z,99437.44
2023-01-15T23:47:04.751Z,99427.28
2023-01-15T23:49:31.818Z,99428.69
2023-01-15T23:51:59.099Z,99426.63
2023-01-15T23:54:28.754Z,99420.03
2023-01-15T23:56:56.112Z,99417.34
2023-01-15T23:59:22.879Z,99417.09
